sensor_id;sensor_type;location;lat;lon;timestamp;P1;durP1;ratioP1;P2;durP2;ratioP2
42478;SDS011;28110;47.080;9.476;2022-07-29T00:02:03;1.97;;;0.97;;
42478;SDS011;28110;47.080;9.476;2022-07-29T00:04:28;3.70;;;1.10;;
42478;SDS011;28110;47.080;9.476;2022-07-29T00:06:54;1.90;;;1.03;;
42478;SDS011;28110;47.080;9.476;2022-07-29T00:09:19;3.70;;;1.00;;
42478;SDS011;28110;47.080;9.476;2022-07-29T00:11:45;4.27;;;0.90;;
42478;SDS011;28110;47.080;9.476;2022-07-29T00:14:11;2.13;;;0.83;;
42478;SDS011;28110;47.080;9.476;2022-07-29T00:16:36;1.70;;;1.00;;
42478;SDS011;28110;47.080;9.476;2022-07-29T00:19:02;1.60;;;0.98;;
42478;SDS011;28110;47.080;9.476;2022-07-29T00:21:28;2.77;;;0.90;;
42478;SDS011;28110;47.080;9.476;2022-07-29T00:23:53;1.50;;;0.82;;
42478;SDS011;28110;47.080;9.476;2022-07-29T00:26:19;2.47;;;1.13;;
42478;SDS011;28110;47.080;9.476;2022-07-29T00:28:44;1.60;;;1.10;;
42478;SDS011;28110;47.080;9.476;2022-07-29T00:31:10;1.88;;;1.10;;
42478;SDS011;28110;47.080;9.476;2022-07-29T00:33:35;1.53;;;1.00;;
42478;SDS011;28110;47.080;9.476;2022-07-29T00:36:01;2.50;;;1.00;;
42478;SDS011;28110;47.080;9.476;2022-07-29T00:38:27;1.40;;;0.80;;
42478;SDS011;28110;47.080;9.476;2022-07-29T00:40:52;1.10;;;0.90;;
42478;SDS011;28110;47.080;9.476;2022-07-29T00:43:18;2.53;;;1.20;;
42478;SDS011;28110;47.080;9.476;2022-07-29T00:45:44;2.27;;;1.13;;
42478;SDS011;28110;47.080;9.476;2022-07-29T00:48:09;2.13;;;1.10;;
42478;SDS011;28110;47.080;9.476;2022-07-29T00:50:35;5.37;;;1.13;;
42478;SDS011;28110;47.080;9.476;2022-07-29T00:53:02;1.67;;;1.00;;
42478;SDS011;28110;47.080;9.476;2022-07-29T00:55:29;1.13;;;1.00;;
42478;SDS011;28110;47.080;9.476;2022-07-29T00:57:55;1.75;;;0.90;;
42478;SDS011;28110;47.080;9.476;2022-07-29T01:00:23;1.53;;;1.00;;
42478;SDS011;28110;47.080;9.476;2022-07-29T01:02:50;1.65;;;1.02;;
42478;SDS011;28110;47.080;9.476;2022-07-29T01:05:23;3.00;;;1.30;;
42478;SDS011;28110;47.080;9.476;2022-07-29T01:07:53;4.73;;;1.23;;
42478;SDS011;28110;47.080;9.476;2022-07-29T01:10:19;1.48;;;1.35;;
42478;SDS011;28110;47.080;9.476;2022-07-29T01:12:46;1.70;;;1.10;;
42478;SDS011;28110;47.080;9.476;2022-07-29T01:15:14;1.38;;;1.13;;
42478;SDS011;28110;47.080;9.476;2022-07-29T01:17:44;3.03;;;1.33;;
42478;SDS011;28110;47.080;9.476;2022-07-29T01:20:18;2.28;;;1.02;;
42478;SDS011;28110;47.080;9.476;2022-07-29T01:23:01;1.40;;;1.13;;
42478;SDS011;28110;47.080;9.476;2022-07-29T01:28:47;4.32;;;1.20;;
42478;SDS011;28110;47.080;9.476;2022-07-29T01:31:39;2.33;;;1.10;;
42478;SDS011;28110;47.080;9.476;2022-07-29T01:37:26;2.15;;;1.30;;
42478;SDS011;28110;47.080;9.476;2022-07-29T01:40:04;2.38;;;1.08;;
42478;SDS011;28110;47.080;9.476;2022-07-29T01:42:40;2.17;;;1.20;;
42478;SDS011;28110;47.080;9.476;2022-07-29T01:45:10;1.37;;;0.97;;
42478;SDS011;28110;47.080;9.476;2022-07-29T01:47:42;2.13;;;1.20;;
42478;SDS011;28110;47.080;9.476;2022-07-29T01:50:11;1.42;;;1.10;;
42478;SDS011;28110;47.080;9.476;2022-07-29T01:52:45;6.15;;;1.38;;
42478;SDS011;28110;47.080;9.476;2022-07-29T01:55:17;3.08;;;1.15;;
42478;SDS011;28110;47.080;9.476;2022-07-29T01:57:47;2.70;;;1.30;;
42478;SDS011;28110;47.080;9.476;2022-07-29T02:00:14;2.20;;;1.25;;
42478;SDS011;28110;47.080;9.476;2022-07-29T02:02:42;6.78;;;1.30;;
42478;SDS011;28110;47.080;9.476;2022-07-29T02:05:10;1.65;;;1.00;;
42478;SDS011;28110;47.080;9.476;2022-07-29T02:07:38;1.85;;;1.35;;
42478;SDS011;28110;47.080;9.476;2022-07-29T02:10:07;1.77;;;1.10;;
42478;SDS011;28110;47.080;9.476;2022-07-29T02:12:34;2.47;;;1.02;;
42478;SDS011;28110;47.080;9.476;2022-07-29T02:15:01;2.80;;;1.40;;
42478;SDS011;28110;47.080;9.476;2022-07-29T02:17:31;1.40;;;1.10;;
42478;SDS011;28110;47.080;9.476;2022-07-29T02:20:02;2.20;;;1.20;;
42478;SDS011;28110;47.080;9.476;2022-07-29T02:22:30;1.50;;;1.17;;
42478;SDS011;28110;47.080;9.476;2022-07-29T02:24:58;2.08;;;1.30;;
42478;SDS011;28110;47.080;9.476;2022-07-29T02:27:25;2.55;;;1.35;;
42478;SDS011;28110;47.080;9.476;2022-07-29T02:29:53;3.42;;;1.25;;
42478;SDS011;28110;47.080;9.476;2022-07-29T02:32:22;3.30;;;1.00;;
42478;SDS011;28110;47.080;9.476;2022-07-29T02:34:49;2.33;;;1.00;;
42478;SDS011;28110;47.080;9.476;2022-07-29T02:37:16;2.38;;;1.08;;
42478;SDS011;28110;47.080;9.476;2022-07-29T02:39:43;1.58;;;1.00;;
42478;SDS011;28110;47.080;9.476;2022-07-29T02:42:11;1.17;;;0.98;;
42478;SDS011;28110;47.080;9.476;2022-07-29T02:44:39;2.67;;;1.15;;
42478;SDS011;28110;47.080;9.476;2022-07-29T02:50:54;1.42;;;1.20;;
42478;SDS011;28110;47.080;9.476;2022-07-29T02:53:00;3.17;;;0.93;;
42478;SDS011;28110;47.080;9.476;2022-07-29T02:55:46;2.10;;;0.85;;
42478;SDS011;28110;47.080;9.476;2022-07-29T02:58:29;1.20;;;0.90;;
42478;SDS011;28110;47.080;9.476;2022-07-29T03:00:59;1.50;;;1.00;;
42478;SDS011;28110;47.080;9.476;2022-07-29T03:03:29;1.83;;;1.02;;
42478;SDS011;28110;47.080;9.476;2022-07-29T03:06:01;1.98;;;1.00;;
42478;SDS011;28110;47.080;9.476;2022-07-29T03:08:28;4.93;;;1.20;;
42478;SDS011;28110;47.080;9.476;2022-07-29T03:10:56;2.73;;;1.10;;
42478;SDS011;28110;47.080;9.476;2022-07-29T03:13:22;1.17;;;1.08;;
42478;SDS011;28110;47.080;9.476;2022-07-29T03:15:48;2.85;;;1.20;;
42478;SDS011;28110;47.080;9.476;2022-07-29T03:18:14;1.85;;;1.20;;
42478;SDS011;28110;47.080;9.476;2022-07-29T03:20:40;1.50;;;1.03;;
42478;SDS011;28110;47.080;9.476;2022-07-29T03:23:07;2.63;;;1.10;;
42478;SDS011;28110;47.080;9.476;2022-07-29T03:25:33;2.30;;;0.85;;
42478;SDS011;28110;47.080;9.476;2022-07-29T03:27:59;1.17;;;0.90;;
42478;SDS011;28110;47.080;9.476;2022-07-29T03:30:25;2.90;;;0.95;;
42478;SDS011;28110;47.080;9.476;2022-07-29T03:32:50;3.65;;;1.02;;
42478;SDS011;28110;47.080;9.476;2022-07-29T03:35:17;3.67;;;1.10;;
42478;SDS011;28110;47.080;9.476;2022-07-29T03:37:44;2.72;;;1.10;;
42478;SDS011;28110;47.080;9.476;2022-07-29T03:40:11;2.90;;;1.25;;
42478;SDS011;28110;47.080;9.476;2022-07-29T03:42:43;2.42;;;1.10;;
42478;SDS011;28110;47.080;9.476;2022-07-29T03:45:10;1.13;;;1.00;;
42478;SDS011;28110;47.080;9.476;2022-07-29T03:47:42;2.07;;;0.90;;
42478;SDS011;28110;47.080;9.476;2022-07-29T03:50:13;1.63;;;1.05;;
42478;SDS011;28110;47.080;9.476;2022-07-29T03:52:40;1.98;;;0.95;;
42478;SDS011;28110;47.080;9.476;2022-07-29T03:55:06;1.63;;;1.10;;
42478;SDS011;28110;47.080;9.476;2022-07-29T03:57:33;2.23;;;1.10;;
42478;SDS011;28110;47.080;9.476;2022-07-29T04:00:01;3.08;;;1.25;;
42478;SDS011;28110;47.080;9.476;2022-07-29T04:02:30;1.55;;;1.02;;
42478;SDS011;28110;47.080;9.476;2022-07-29T04:04:57;2.03;;;0.88;;
42478;SDS011;28110;47.080;9.476;2022-07-29T04:07:23;1.20;;;0.90;;
42478;SDS011;28110;47.080;9.476;2022-07-29T04:09:48;3.00;;;1.20;;
42478;SDS011;28110;47.080;9.476;2022-07-29T04:12:14;4.03;;;1.30;;
42478;SDS011;28110;47.080;9.476;2022-07-29T04:14:39;2.20;;;1.20;;
42478;SDS011;28110;47.080;9.476;2022-07-29T04:17:05;3.03;;;1.02;;
42478;SDS011;28110;47.080;9.476;2022-07-29T04:19:31;1.60;;;1.00;;
42478;SDS011;28110;47.080;9.476;2022-07-29T04:21:57;1.33;;;0.90;;
42478;SDS011;28110;47.080;9.476;2022-07-29T04:24:23;2.25;;;1.17;;
42478;SDS011;28110;47.080;9.476;2022-07-29T04:26:49;3.90;;;1.20;;
42478;SDS011;28110;47.080;9.476;2022-07-29T04:29:15;3.05;;;1.20;;
42478;SDS011;28110;47.080;9.476;2022-07-29T04:31:41;1.67;;;1.13;;
42478;SDS011;28110;47.080;9.476;2022-07-29T04:34:07;1.65;;;0.98;;
42478;SDS011;28110;47.080;9.476;2022-07-29T04:36:33;1.75;;;0.70;;
42478;SDS011;28110;47.080;9.476;2022-07-29T04:38:59;2.53;;;1.30;;
42478;SDS011;28110;47.080;9.476;2022-07-29T04:41:26;1.98;;;1.10;;
42478;SDS011;28110;47.080;9.476;2022-07-29T04:43:52;1.38;;;1.00;;
42478;SDS011;28110;47.080;9.476;2022-07-29T04:46:18;1.63;;;1.00;;
42478;SDS011;28110;47.080;9.476;2022-07-29T04:48:45;4.03;;;1.40;;
42478;SDS011;28110;47.080;9.476;2022-07-29T04:51:11;3.30;;;1.02;;
42478;SDS011;28110;47.080;9.476;2022-07-29T04:53:36;3.07;;;1.23;;
42478;SDS011;28110;47.080;9.476;2022-07-29T04:56:02;3.33;;;1.30;;
42478;SDS011;28110;47.080;9.476;2022-07-29T04:58:28;1.55;;;1.02;;
42478;SDS011;28110;47.080;9.476;2022-07-29T05:00:53;5.27;;;1.10;;
42478;SDS011;28110;47.080;9.476;2022-07-29T05:03:19;2.67;;;1.00;;
42478;SDS011;28110;47.080;9.476;2022-07-29T05:05:45;2.67;;;1.20;;
42478;SDS011;28110;47.080;9.476;2022-07-29T05:08:10;1.50;;;1.03;;
42478;SDS011;28110;47.080;9.476;2022-07-29T05:10:36;4.57;;;1.10;;
42478;SDS011;28110;47.080;9.476;2022-07-29T05:13:03;4.28;;;1.20;;
42478;SDS011;28110;47.080;9.476;2022-07-29T05:15:33;1.40;;;1.07;;
42478;SDS011;28110;47.080;9.476;2022-07-29T05:18:00;5.68;;;1.23;;
42478;SDS011;28110;47.080;9.476;2022-07-29T05:20:26;1.90;;;1.38;;
42478;SDS011;28110;47.080;9.476;2022-07-29T05:22:57;2.13;;;1.30;;
42478;SDS011;28110;47.080;9.476;2022-07-29T05:25:24;1.67;;;1.20;;
42478;SDS011;28110;47.080;9.476;2022-07-29T05:27:51;3.00;;;1.30;;
42478;SDS011;28110;47.080;9.476;2022-07-29T05:30:16;2.83;;;1.20;;
42478;SDS011;28110;47.080;9.476;2022-07-29T05:32:42;3.57;;;1.20;;
42478;SDS011;28110;47.080;9.476;2022-07-29T05:35:08;3.80;;;1.27;;
42478;SDS011;28110;47.080;9.476;2022-07-29T05:37:34;4.13;;;1.27;;
42478;SDS011;28110;47.080;9.476;2022-07-29T05:39:59;3.33;;;1.23;;
42478;SDS011;28110;47.080;9.476;2022-07-29T05:42:25;2.73;;;1.10;;
42478;SDS011;28110;47.080;9.476;2022-07-29T05:47:17;2.63;;;1.20;;
42478;SDS011;28110;47.080;9.476;2022-07-29T05:49:43;3.30;;;1.80;;
42478;SDS011;28110;47.080;9.476;2022-07-29T05:52:09;1.90;;;1.30;;
42478;SDS011;28110;47.080;9.476;2022-07-29T05:54:35;2.40;;;1.50;;
42478;SDS011;28110;47.080;9.476;2022-07-29T05:57:01;1.60;;;1.27;;
42478;SDS011;28110;47.080;9.476;2022-07-29T05:59:27;2.90;;;1.33;;
42478;SDS011;28110;47.080;9.476;2022-07-29T06:01:53;5.05;;;1.70;;
42478;SDS011;28110;47.080;9.476;2022-07-29T06:04:19;1.23;;;1.13;;
42478;SDS011;28110;47.080;9.476;2022-07-29T06:06:45;2.97;;;1.30;;
42478;SDS011;28110;47.080;9.476;2022-07-29T06:09:10;1.90;;;1.30;;
42478;SDS011;28110;47.080;9.476;2022-07-29T06:11:36;4.37;;;1.30;;
42478;SDS011;28110;47.080;9.476;2022-07-29T06:14:01;3.47;;;1.07;;
42478;SDS011;28110;47.080;9.476;2022-07-29T06:16:28;1.55;;;1.10;;
42478;SDS011;28110;47.080;9.476;2022-07-29T06:18:53;3.58;;;1.10;;
42478;SDS011;28110;47.080;9.476;2022-07-29T06:21:19;1.43;;;1.10;;
42478;SDS011;28110;47.080;9.476;2022-07-29T06:23:44;2.23;;;1.20;;
42478;SDS011;28110;47.080;9.476;2022-07-29T06:26:10;3.45;;;1.20;;
42478;SDS011;28110;47.080;9.476;2022-07-29T06:28:35;5.90;;;1.27;;
42478;SDS011;28110;47.080;9.476;2022-07-29T06:31:01;4.17;;;1.30;;
42478;SDS011;28110;47.080;9.476;2022-07-29T06:33:27;4.40;;;1.30;;
42478;SDS011;28110;47.080;9.476;2022-07-29T06:35:52;1.40;;;1.20;;
42478;SDS011;28110;47.080;9.476;2022-07-29T06:38:18;2.50;;;1.00;;
42478;SDS011;28110;47.080;9.476;2022-07-29T06:40:44;2.23;;;0.93;;
42478;SDS011;28110;47.080;9.476;2022-07-29T06:43:25;2.13;;;1.10;;
42478;SDS011;28110;47.080;9.476;2022-07-29T06:45:52;3.73;;;1.00;;
42478;SDS011;28110;47.080;9.476;2022-07-29T06:48:18;1.00;;;0.85;;
42478;SDS011;28110;47.080;9.476;2022-07-29T06:50:43;3.90;;;1.37;;
42478;SDS011;28110;47.080;9.476;2022-07-29T06:53:09;1.55;;;1.05;;
42478;SDS011;28110;47.080;9.476;2022-07-29T06:55:34;1.57;;;1.07;;
42478;SDS011;28110;47.080;9.476;2022-07-29T06:58:01;1.65;;;1.10;;
42478;SDS011;28110;47.080;9.476;2022-07-29T07:00:27;1.40;;;0.90;;
42478;SDS011;28110;47.080;9.476;2022-07-29T07:02:52;1.20;;;1.10;;
42478;SDS011;28110;47.080;9.476;2022-07-29T07:05:18;1.75;;;1.10;;
42478;SDS011;28110;47.080;9.476;2022-07-29T07:07:44;2.37;;;1.20;;
42478;SDS011;28110;47.080;9.476;2022-07-29T07:10:09;1.23;;;1.00;;
42478;SDS011;28110;47.080;9.476;2022-07-29T07:12:35;1.60;;;1.10;;
42478;SDS011;28110;47.080;9.476;2022-07-29T07:15:00;3.10;;;1.03;;
42478;SDS011;28110;47.080;9.476;2022-07-29T07:17:26;2.77;;;1.13;;
42478;SDS011;28110;47.080;9.476;2022-07-29T07:19:51;2.03;;;1.00;;
42478;SDS011;28110;47.080;9.476;2022-07-29T07:22:17;2.20;;;1.13;;
42478;SDS011;28110;47.080;9.476;2022-07-29T07:24:42;1.30;;;1.03;;
42478;SDS011;28110;47.080;9.476;2022-07-29T07:27:08;2.80;;;0.80;;
42478;SDS011;28110;47.080;9.476;2022-07-29T07:29:33;1.73;;;0.70;;
42478;SDS011;28110;47.080;9.476;2022-07-29T07:31:59;3.00;;;1.07;;
42478;SDS011;28110;47.080;9.476;2022-07-29T07:34:24;1.20;;;1.00;;
42478;SDS011;28110;47.080;9.476;2022-07-29T07:36:50;1.30;;;1.10;;
42478;SDS011;28110;47.080;9.476;2022-07-29T07:39:15;1.83;;;1.00;;
42478;SDS011;28110;47.080;9.476;2022-07-29T07:41:41;4.35;;;1.17;;
42478;SDS011;28110;47.080;9.476;2022-07-29T07:44:07;2.23;;;1.10;;
42478;SDS011;28110;47.080;9.476;2022-07-29T07:46:32;1.20;;;1.10;;
42478;SDS011;28110;47.080;9.476;2022-07-29T07:48:58;2.42;;;1.17;;
42478;SDS011;28110;47.080;9.476;2022-07-29T07:51:23;2.73;;;1.03;;
42478;SDS011;28110;47.080;9.476;2022-07-29T07:53:49;4.30;;;1.37;;
42478;SDS011;28110;47.080;9.476;2022-07-29T07:56:15;4.35;;;1.40;;
42478;SDS011;28110;47.080;9.476;2022-07-29T07:58:41;1.20;;;1.00;;
42478;SDS011;28110;47.080;9.476;2022-07-29T08:01:07;1.93;;;1.10;;
42478;SDS011;28110;47.080;9.476;2022-07-29T08:03:33;2.13;;;1.10;;
42478;SDS011;28110;47.080;9.476;2022-07-29T08:06:00;1.75;;;1.00;;
42478;SDS011;28110;47.080;9.476;2022-07-29T08:08:25;2.33;;;1.00;;
42478;SDS011;28110;47.080;9.476;2022-07-29T08:10:51;1.90;;;1.00;;
42478;SDS011;28110;47.080;9.476;2022-07-29T08:13:16;3.13;;;1.20;;
42478;SDS011;28110;47.080;9.476;2022-07-29T08:15:43;1.20;;;1.10;;
42478;SDS011;28110;47.080;9.476;2022-07-29T08:18:10;3.00;;;1.20;;
42478;SDS011;28110;47.080;9.476;2022-07-29T08:20:36;3.00;;;1.40;;
42478;SDS011;28110;47.080;9.476;2022-07-29T08:23:03;1.20;;;1.00;;
42478;SDS011;28110;47.080;9.476;2022-07-29T08:25:29;1.45;;;1.00;;
42478;SDS011;28110;47.080;9.476;2022-07-29T08:27:55;3.83;;;1.20;;
42478;SDS011;28110;47.080;9.476;2022-07-29T08:30:20;2.70;;;1.13;;
42478;SDS011;28110;47.080;9.476;2022-07-29T08:32:47;1.80;;;1.00;;
42478;SDS011;28110;47.080;9.476;2022-07-29T08:35:13;2.40;;;1.20;;
42478;SDS011;28110;47.080;9.476;2022-07-29T08:37:39;1.80;;;1.30;;
42478;SDS011;28110;47.080;9.476;2022-07-29T08:40:04;2.30;;;1.10;;
42478;SDS011;28110;47.080;9.476;2022-07-29T08:42:31;2.35;;;1.10;;
42478;SDS011;28110;47.080;9.476;2022-07-29T08:44:56;3.00;;;1.13;;
42478;SDS011;28110;47.080;9.476;2022-07-29T08:47:23;2.13;;;1.20;;
42478;SDS011;28110;47.080;9.476;2022-07-29T08:49:51;3.03;;;1.20;;
42478;SDS011;28110;47.080;9.476;2022-07-29T08:52:17;4.05;;;1.50;;
42478;SDS011;28110;47.080;9.476;2022-07-29T08:54:44;2.42;;;1.30;;
42478;SDS011;28110;47.080;9.476;2022-07-29T08:57:13;1.30;;;1.20;;
42478;SDS011;28110;47.080;9.476;2022-07-29T08:59:40;1.77;;;1.30;;
42478;SDS011;28110;47.080;9.476;2022-07-29T09:02:08;2.97;;;1.33;;
42478;SDS011;28110;47.080;9.476;2022-07-29T09:04:43;1.73;;;1.30;;
42478;SDS011;28110;47.080;9.476;2022-07-29T09:07:10;1.55;;;1.30;;
42478;SDS011;28110;47.080;9.476;2022-07-29T09:09:39;1.83;;;1.23;;
42478;SDS011;28110;47.080;9.476;2022-07-29T09:12:05;1.20;;;1.10;;
42478;SDS011;28110;47.080;9.476;2022-07-29T09:14:33;1.55;;;1.20;;
42478;SDS011;28110;47.080;9.476;2022-07-29T09:16:59;4.55;;;1.40;;
42478;SDS011;28110;47.080;9.476;2022-07-29T09:19:31;2.17;;;1.37;;
42478;SDS011;28110;47.080;9.476;2022-07-29T09:22:02;3.13;;;1.55;;
42478;SDS011;28110;47.080;9.476;2022-07-29T09:24:43;2.75;;;1.50;;
42478;SDS011;28110;47.080;9.476;2022-07-29T09:27:11;3.00;;;1.15;;
42478;SDS011;28110;47.080;9.476;2022-07-29T09:30:07;4.93;;;1.50;;
42478;SDS011;28110;47.080;9.476;2022-07-29T09:32:56;3.95;;;1.48;;
42478;SDS011;28110;47.080;9.476;2022-07-29T09:35:24;2.85;;;1.52;;
42478;SDS011;28110;47.080;9.476;2022-07-29T09:37:51;2.20;;;1.20;;
42478;SDS011;28110;47.080;9.476;2022-07-29T09:40:18;4.15;;;1.30;;
42478;SDS011;28110;47.080;9.476;2022-07-29T09:42:47;2.53;;;1.50;;
42478;SDS011;28110;47.080;9.476;2022-07-29T09:45:33;2.95;;;1.58;;
42478;SDS011;28110;47.080;9.476;2022-07-29T09:47:59;1.80;;;1.30;;
42478;SDS011;28110;47.080;9.476;2022-07-29T09:50:40;2.53;;;1.38;;
42478;SDS011;28110;47.080;9.476;2022-07-29T09:53:08;3.10;;;1.88;;
42478;SDS011;28110;47.080;9.476;2022-07-29T09:55:47;2.67;;;1.40;;
42478;SDS011;28110;47.080;9.476;2022-07-29T09:58:15;2.60;;;1.58;;
42478;SDS011;28110;47.080;9.476;2022-07-29T10:00:45;5.28;;;1.77;;
42478;SDS011;28110;47.080;9.476;2022-07-29T10:03:11;2.30;;;1.65;;
42478;SDS011;28110;47.080;9.476;2022-07-29T10:05:38;6.45;;;1.80;;
42478;SDS011;28110;47.080;9.476;2022-07-29T10:08:05;7.27;;;2.10;;
42478;SDS011;28110;47.080;9.476;2022-07-29T10:10:33;2.30;;;1.85;;
42478;SDS011;28110;47.080;9.476;2022-07-29T10:13:01;2.80;;;1.80;;
42478;SDS011;28110;47.080;9.476;2022-07-29T10:15:31;1.67;;;1.58;;
42478;SDS011;28110;47.080;9.476;2022-07-29T10:17:58;2.42;;;1.75;;
42478;SDS011;28110;47.080;9.476;2022-07-29T10:20:25;3.07;;;1.80;;
42478;SDS011;28110;47.080;9.476;2022-07-29T10:22:52;3.70;;;2.08;;
42478;SDS011;28110;47.080;9.476;2022-07-29T10:25:18;3.35;;;1.85;;
42478;SDS011;28110;47.080;9.476;2022-07-29T10:27:45;4.97;;;1.92;;
42478;SDS011;28110;47.080;9.476;2022-07-29T10:30:12;2.38;;;1.90;;
42478;SDS011;28110;47.080;9.476;2022-07-29T10:35:41;3.65;;;1.90;;
42478;SDS011;28110;47.080;9.476;2022-07-29T10:46:25;2.27;;;1.43;;
42478;SDS011;28110;47.080;9.476;2022-07-29T10:57:10;3.00;;;1.60;;
42478;SDS011;28110;47.080;9.476;2022-07-29T10:59:41;3.13;;;1.90;;
42478;SDS011;28110;47.080;9.476;2022-07-29T11:05:02;2.97;;;1.80;;
42478;SDS011;28110;47.080;9.476;2022-07-29T11:07:29;5.30;;;1.60;;
42478;SDS011;28110;47.080;9.476;2022-07-29T11:12:50;2.95;;;1.90;;
42478;SDS011;28110;47.080;9.476;2022-07-29T11:15:17;2.03;;;1.45;;
42478;SDS011;28110;47.080;9.476;2022-07-29T11:28:59;5.07;;;1.70;;
42478;SDS011;28110;47.080;9.476;2022-07-29T11:44:57;1.87;;;1.50;;
42478;SDS011;28110;47.080;9.476;2022-07-29T11:47:24;2.10;;;1.80;;
42478;SDS011;28110;47.080;9.476;2022-07-29T11:49:51;3.35;;;1.95;;
42478;SDS011;28110;47.080;9.476;2022-07-29T11:52:18;5.28;;;2.00;;
42478;SDS011;28110;47.080;9.476;2022-07-29T11:54:44;2.63;;;1.52;;
42478;SDS011;28110;47.080;9.476;2022-07-29T11:57:13;2.27;;;1.60;;
42478;SDS011;28110;47.080;9.476;2022-07-29T11:59:41;5.78;;;1.65;;
42478;SDS011;28110;47.080;9.476;2022-07-29T12:02:09;1.60;;;1.50;;
42478;SDS011;28110;47.080;9.476;2022-07-29T12:04:53;2.40;;;1.50;;
42478;SDS011;28110;47.080;9.476;2022-07-29T12:07:30;3.88;;;1.48;;
42478;SDS011;28110;47.080;9.476;2022-07-29T12:09:57;1.87;;;1.50;;
42478;SDS011;28110;47.080;9.476;2022-07-29T12:12:24;1.55;;;1.33;;
42478;SDS011;28110;47.080;9.476;2022-07-29T12:14:50;1.88;;;1.42;;
42478;SDS011;28110;47.080;9.476;2022-07-29T12:20:10;2.90;;;1.52;;
42478;SDS011;28110;47.080;9.476;2022-07-29T12:22:40;5.97;;;1.85;;
42478;SDS011;28110;47.080;9.476;2022-07-29T12:25:12;2.78;;;1.30;;
42478;SDS011;28110;47.080;9.476;2022-07-29T12:27:40;2.45;;;1.48;;
42478;SDS011;28110;47.080;9.476;2022-07-29T12:30:09;1.60;;;1.40;;
42478;SDS011;28110;47.080;9.476;2022-07-29T12:32:37;3.08;;;1.60;;
42478;SDS011;28110;47.080;9.476;2022-07-29T12:35:06;3.65;;;2.22;;
42478;SDS011;28110;47.080;9.476;2022-07-29T12:37:40;2.53;;;1.80;;
42478;SDS011;28110;47.080;9.476;2022-07-29T12:40:07;2.63;;;1.70;;
42478;SDS011;28110;47.080;9.476;2022-07-29T12:42:34;1.60;;;1.50;;
42478;SDS011;28110;47.080;9.476;2022-07-29T12:45:00;1.65;;;1.55;;
42478;SDS011;28110;47.080;9.476;2022-07-29T12:47:26;2.58;;;1.90;;
42478;SDS011;28110;47.080;9.476;2022-07-29T12:50:12;4.80;;;1.60;;
42478;SDS011;28110;47.080;9.476;2022-07-29T12:52:42;2.35;;;2.00;;
42478;SDS011;28110;47.080;9.476;2022-07-29T12:55:09;3.58;;;2.33;;
42478;SDS011;28110;47.080;9.476;2022-07-29T12:57:48;4.95;;;2.20;;
42478;SDS011;28110;47.080;9.476;2022-07-29T13:00:16;2.30;;;2.00;;
42478;SDS011;28110;47.080;9.476;2022-07-29T13:02:53;2.00;;;1.80;;
42478;SDS011;28110;47.080;9.476;2022-07-29T13:05:20;1.83;;;1.73;;
42478;SDS011;28110;47.080;9.476;2022-07-29T13:07:46;3.20;;;1.80;;
42478;SDS011;28110;47.080;9.476;2022-07-29T13:15:32;6.03;;;1.90;;
42478;SDS011;28110;47.080;9.476;2022-07-29T13:17:58;4.10;;;1.80;;
42478;SDS011;28110;47.080;9.476;2022-07-29T13:20:24;6.07;;;1.88;;
42478;SDS011;28110;47.080;9.476;2022-07-29T13:22:54;3.95;;;2.03;;
42478;SDS011;28110;47.080;9.476;2022-07-29T13:25:26;15.05;;;2.45;;
42478;SDS011;28110;47.080;9.476;2022-07-29T13:27:57;7.43;;;2.53;;
42478;SDS011;28110;47.080;9.476;2022-07-29T13:30:23;7.28;;;2.83;;
42478;SDS011;28110;47.080;9.476;2022-07-29T13:32:50;7.18;;;3.15;;
42478;SDS011;28110;47.080;9.476;2022-07-29T13:35:17;6.13;;;2.75;;
42478;SDS011;28110;47.080;9.476;2022-07-29T13:37:43;4.95;;;2.42;;
42478;SDS011;28110;47.080;9.476;2022-07-29T13:40:09;4.03;;;2.40;;
42478;SDS011;28110;47.080;9.476;2022-07-29T13:42:35;4.43;;;2.50;;
42478;SDS011;28110;47.080;9.476;2022-07-29T13:45:02;4.83;;;2.30;;
42478;SDS011;28110;47.080;9.476;2022-07-29T13:47:29;3.13;;;2.13;;
42478;SDS011;28110;47.080;9.476;2022-07-29T13:49:55;3.25;;;2.40;;
42478;SDS011;28110;47.080;9.476;2022-07-29T13:52:20;3.27;;;2.40;;
42478;SDS011;28110;47.080;9.476;2022-07-29T13:54:46;4.80;;;2.65;;
42478;SDS011;28110;47.080;9.476;2022-07-29T13:57:12;4.97;;;2.63;;
42478;SDS011;28110;47.080;9.476;2022-07-29T13:59:39;5.68;;;2.72;;
42478;SDS011;28110;47.080;9.476;2022-07-29T14:02:06;6.00;;;3.03;;
42478;SDS011;28110;47.080;9.476;2022-07-29T14:04:33;4.82;;;2.60;;
42478;SDS011;28110;47.080;9.476;2022-07-29T14:06:58;5.43;;;3.10;;
42478;SDS011;28110;47.080;9.476;2022-07-29T14:09:24;6.73;;;2.60;;
42478;SDS011;28110;47.080;9.476;2022-07-29T14:11:50;4.15;;;2.63;;
42478;SDS011;28110;47.080;9.476;2022-07-29T14:14:17;4.87;;;2.50;;
42478;SDS011;28110;47.080;9.476;2022-07-29T14:16:43;6.78;;;2.95;;
42478;SDS011;28110;47.080;9.476;2022-07-29T14:19:09;7.17;;;3.00;;
42478;SDS011;28110;47.080;9.476;2022-07-29T14:21:35;4.28;;;2.70;;
42478;SDS011;28110;47.080;9.476;2022-07-29T14:24:01;5.22;;;2.67;;
42478;SDS011;28110;47.080;9.476;2022-07-29T14:26:27;4.53;;;2.80;;
42478;SDS011;28110;47.080;9.476;2022-07-29T14:28:52;5.32;;;2.80;;
42478;SDS011;28110;47.080;9.476;2022-07-29T14:31:18;5.07;;;2.97;;
42478;SDS011;28110;47.080;9.476;2022-07-29T14:33:44;3.80;;;2.60;;
42478;SDS011;28110;47.080;9.476;2022-07-29T14:36:09;8.93;;;2.72;;
42478;SDS011;28110;47.080;9.476;2022-07-29T14:38:35;7.67;;;3.00;;
42478;SDS011;28110;47.080;9.476;2022-07-29T14:41:02;5.88;;;3.22;;
42478;SDS011;28110;47.080;9.476;2022-07-29T14:43:28;3.58;;;2.85;;
42478;SDS011;28110;47.080;9.476;2022-07-29T14:45:53;6.40;;;3.00;;
42478;SDS011;28110;47.080;9.476;2022-07-29T14:48:19;6.00;;;2.63;;
42478;SDS011;28110;47.080;9.476;2022-07-29T14:50:44;3.80;;;2.57;;
42478;SDS011;28110;47.080;9.476;2022-07-29T14:53:10;5.50;;;2.60;;
42478;SDS011;28110;47.080;9.476;2022-07-29T14:55:38;4.82;;;3.10;;
42478;SDS011;28110;47.080;9.476;2022-07-29T14:58:04;3.53;;;2.75;;
42478;SDS011;28110;47.080;9.476;2022-07-29T15:00:29;6.03;;;3.20;;
42478;SDS011;28110;47.080;9.476;2022-07-29T15:02:57;2.78;;;2.55;;
42478;SDS011;28110;47.080;9.476;2022-07-29T15:05:23;5.63;;;3.22;;
42478;SDS011;28110;47.080;9.476;2022-07-29T15:07:49;5.57;;;2.80;;
42478;SDS011;28110;47.080;9.476;2022-07-29T15:10:14;5.17;;;2.90;;
42478;SDS011;28110;47.080;9.476;2022-07-29T15:12:40;6.82;;;3.15;;
42478;SDS011;28110;47.080;9.476;2022-07-29T15:15:05;6.70;;;3.17;;
42478;SDS011;28110;47.080;9.476;2022-07-29T15:17:32;5.25;;;3.35;;
42478;SDS011;28110;47.080;9.476;2022-07-29T15:19:58;7.90;;;3.73;;
42478;SDS011;28110;47.080;9.476;2022-07-29T15:22:24;6.75;;;3.90;;
42478;SDS011;28110;47.080;9.476;2022-07-29T15:24:49;5.17;;;3.13;;
42478;SDS011;28110;47.080;9.476;2022-07-29T15:27:15;8.65;;;4.03;;
42478;SDS011;28110;47.080;9.476;2022-07-29T15:29:41;8.20;;;3.70;;
42478;SDS011;28110;47.080;9.476;2022-07-29T15:32:07;5.60;;;3.40;;
42478;SDS011;28110;47.080;9.476;2022-07-29T15:34:32;6.40;;;3.50;;
42478;SDS011;28110;47.080;9.476;2022-07-29T15:36:58;5.40;;;3.50;;
42478;SDS011;28110;47.080;9.476;2022-07-29T15:39:24;6.18;;;3.92;;
42478;SDS011;28110;47.080;9.476;2022-07-29T15:41:49;5.43;;;3.53;;
42478;SDS011;28110;47.080;9.476;2022-07-29T15:44:15;8.13;;;3.63;;
42478;SDS011;28110;47.080;9.476;2022-07-29T15:46:41;6.67;;;3.70;;
42478;SDS011;28110;47.080;9.476;2022-07-29T15:49:25;6.28;;;3.70;;
42478;SDS011;28110;47.080;9.476;2022-07-29T15:51:58;8.32;;;3.88;;
42478;SDS011;28110;47.080;9.476;2022-07-29T15:54:25;7.50;;;4.15;;
42478;SDS011;28110;47.080;9.476;2022-07-29T15:56:51;7.18;;;3.72;;
42478;SDS011;28110;47.080;9.476;2022-07-29T15:59:17;6.10;;;4.10;;
42478;SDS011;28110;47.080;9.476;2022-07-29T16:01:42;6.60;;;3.75;;